sensor_id;sensor_type;location;lat;lon;timestamp;pressure;altitude;pressure_sealevel;temperature;humidity
56392;BME280;42289;53.582;9.714;2022-11-15T00:00:44;101199.44;;;5.78;100.00
56392;BME280;42289;53.582;9.714;2022-11-15T00:03:13;101206.34;;;5.75;100.00
56392;BME280;42289;53.582;9.714;2022-11-15T00:05:52;101200.38;;;5.72;100.00
56392;BME280;42289;53.582;9.714;2022-11-15T00:08:23;101210.66;;;5.76;100.00
56392;BME280;42289;53.582;9.714;2022-11-15T00:10:54;101214.19;;;5.68;100.00
56392;BME280;42289;53.582;9.714;2022-11-15T00:13:22;101227.97;;;5.66;100.00
56392;BME280;42289;53.582;9.714;2022-11-15T00:15:49;101223.66;;;5.66;100.00
56392;BME280;42289;53.582;9.714;2022-11-15T00:18:17;101212.44;;;5.70;100.00
56392;BME280;42289;53.582;9.714;2022-11-15T00:20:43;101220.13;;;5.73;100.00
56392;BME280;42289;53.582;9.714;2022-11-15T00:23:10;101199.47;;;5.77;100.00
56392;BME280;42289;53.582;9.714;2022-11-15T00:25:38;101193.47;;;5.75;100.00
56392;BME280;42289;53.582;9.714;2022-11-15T00:28:13;101181.44;;;5.73;100.00
56392;BME280;42289;53.582;9.714;2022-11-15T00:30:40;101172.84;;;5.73;100.00
56392;BME280;42289;53.582;9.714;2022-11-15T00:33:08;101155.63;;;5.73;100.00
56392;BME280;42289;53.582;9.714;2022-11-15T00:35:36;101140.97;;;5.79;100.00
56392;BME280;42289;53.582;9.714;2022-11-15T00:38:03;101128.09;;;5.76;100.00
56392;BME280;42289;53.582;9.714;2022-11-15T00:40:30;101109.22;;;5.73;100.00
56392;BME280;42289;53.582;9.714;2022-11-15T00:42:58;101106.59;;;5.77;100.00
56392;BME280;42289;53.582;9.714;2022-11-15T00:45:25;101092.88;;;5.75;100.00
56392;BME280;42289;53.582;9.714;2022-11-15T00:47:52;101092.00;;;5.76;100.00
56392;BME280;42289;53.582;9.714;2022-11-15T00:50:19;101086.78;;;5.79;100.00
56392;BME280;42289;53.582;9.714;2022-11-15T00:52:47;101084.19;;;5.79;100.00
56392;BME280;42289;53.582;9.714;2022-11-15T00:55:20;101072.16;;;5.81;100.00
56392;BME280;42289;53.582;9.714;2022-11-15T00:57:46;101077.34;;;5.79;100.00
56392;BME280;42289;53.582;9.714;2022-11-15T01:00:17;101073.84;;;5.83;100.00
56392;BME280;42289;53.582;9.714;2022-11-15T01:02:46;101058.41;;;5.79;100.00
56392;BME280;42289;53.582;9.714;2022-11-15T01:05:12;101057.59;;;5.77;100.00
56392;BME280;42289;53.582;9.714;2022-11-15T01:07:39;101058.50;;;5.72;100.00
56392;BME280;42289;53.582;9.714;2022-11-15T01:10:06;101062.88;;;5.67;100.00
56392;BME280;42289;53.582;9.714;2022-11-15T01:12:33;101070.69;;;5.64;100.00
56392;BME280;42289;53.582;9.714;2022-11-15T01:14:59;101081.00;;;5.64;100.00
56392;BME280;42289;53.582;9.714;2022-11-15T01:17:27;101080.25;;;5.56;100.00
56392;BME280;42289;53.582;9.714;2022-11-15T01:19:55;101086.25;;;5.56;100.00
56392;BME280;42289;53.582;9.714;2022-11-15T01:22:21;101101.75;;;5.53;100.00
56392;BME280;42289;53.582;9.714;2022-11-15T01:24:49;101115.53;;;5.52;100.00
56392;BME280;42289;53.582;9.714;2022-11-15T01:27:16;101121.56;;;5.50;100.00
56392;BME280;42289;53.582;9.714;2022-11-15T01:29:42;101125.00;;;5.49;100.00
56392;BME280;42289;53.582;9.714;2022-11-15T01:32:09;101137.00;;;5.51;100.00
56392;BME280;42289;53.582;9.714;2022-11-15T01:34:37;101139.56;;;5.53;100.00
56392;BME280;42289;53.582;9.714;2022-11-15T01:37:03;101152.47;;;5.53;100.00
56392;BME280;42289;53.582;9.714;2022-11-15T01:39:30;101155.03;;;5.56;100.00
56392;BME280;42289;53.582;9.714;2022-11-15T01:41:56;101163.59;;;5.56;100.00
56392;BME280;42289;53.582;9.714;2022-11-15T01:44:36;101163.59;;;5.56;100.00
56392;BME280;42289;53.582;9.714;2022-11-15T01:47:08;101170.50;;;5.56;100.00
56392;BME280;42289;53.582;9.714;2022-11-15T01:49:39;101165.34;;;5.56;100.00
56392;BME280;42289;53.582;9.714;2022-11-15T01:52:09;101165.34;;;5.54;100.00
56392;BME280;42289;53.582;9.714;2022-11-15T01:54:37;101173.94;;;5.55;100.00
56392;BME280;42289;53.582;9.714;2022-11-15T01:57:07;101175.72;;;5.50;100.00
56392;BME280;42289;53.582;9.714;2022-11-15T01:59:36;101177.47;;;5.46;100.00
56392;BME280;42289;53.582;9.714;2022-11-15T02:02:04;101197.25;;;5.46;100.00
56392;BME280;42289;53.582;9.714;2022-11-15T02:04:32;101209.28;;;5.47;100.00
56392;BME280;42289;53.582;9.714;2022-11-15T02:07:01;101203.25;;;5.49;100.00
56392;BME280;42289;53.582;9.714;2022-11-15T02:09:29;101214.44;;;5.47;100.00
56392;BME280;42289;53.582;9.714;2022-11-15T02:11:56;101211.00;;;5.46;100.00
56392;BME280;42289;53.582;9.714;2022-11-15T02:14:23;101217.00;;;5.45;100.00
56392;BME280;42289;53.582;9.714;2022-11-15T02:16:57;101217.81;;;5.50;100.00
56392;BME280;42289;53.582;9.714;2022-11-15T02:19:40;101218.69;;;5.51;100.00
56392;BME280;42289;53.582;9.714;2022-11-15T02:22:27;101214.31;;;5.54;100.00
56392;BME280;42289;53.582;9.714;2022-11-15T02:25:08;101210.06;;;5.52;100.00
56392;BME280;42289;53.582;9.714;2022-11-15T02:30:44;101210.94;;;5.51;100.00
56392;BME280;42289;53.582;9.714;2022-11-15T02:33:22;101214.44;;;5.47;100.00
56392;BME280;42289;53.582;9.714;2022-11-15T02:35:57;101216.06;;;5.54;100.00
56392;BME280;42289;53.582;9.714;2022-11-15T02:38:31;101217.84;;;5.47;100.00
56392;BME280;42289;53.582;9.714;2022-11-15T02:41:02;101222.94;;;5.52;100.00
56392;BME280;42289;53.582;9.714;2022-11-15T02:43:34;101216.13;;;5.51;100.00
56392;BME280;42289;53.582;9.714;2022-11-15T02:46:24;101214.44;;;5.47;100.00
56392;BME280;42289;53.582;9.714;2022-11-15T02:49:13;101214.44;;;5.47;100.00
56392;BME280;42289;53.582;9.714;2022-11-15T02:51:43;101211.84;;;5.45;100.00
56392;BME280;42289;53.582;9.714;2022-11-15T02:54:12;101216.25;;;5.35;100.00
56392;BME280;42289;53.582;9.714;2022-11-15T02:56:39;101236.06;;;5.32;100.00
56392;BME280;42289;53.582;9.714;2022-11-15T02:59:20;101237.84;;;5.27;100.00
56392;BME280;42289;53.582;9.714;2022-11-15T03:02:02;101253.22;;;5.33;100.00
56392;BME280;42289;53.582;9.714;2022-11-15T03:04:36;101271.28;;;5.36;100.00
56392;BME280;42289;53.582;9.714;2022-11-15T03:07:11;101282.41;;;5.36;100.00
56392;BME280;42289;53.582;9.714;2022-11-15T03:09:42;101287.56;;;5.38;100.00
56392;BME280;42289;53.582;9.714;2022-11-15T03:12:22;101300.34;;;5.49;100.00
56392;BME280;42289;53.582;9.714;2022-11-15T03:14:54;101302.09;;;5.47;100.00
56392;BME280;42289;53.582;9.714;2022-11-15T03:17:27;101300.31;;;5.50;100.00
56392;BME280;42289;53.582;9.714;2022-11-15T03:19:56;101308.91;;;5.52;100.00
56392;BME280;42289;53.582;9.714;2022-11-15T03:22:27;101312.34;;;5.56;100.00
56392;BME280;42289;53.582;9.714;2022-11-15T03:24:57;101299.34;;;5.62;100.00
56392;BME280;42289;53.582;9.714;2022-11-15T03:27:28;101290.69;;;5.69;100.00
56392;BME280;42289;53.582;9.714;2022-11-15T03:29:59;101269.19;;;5.69;100.00
56392;BME280;42289;53.582;9.714;2022-11-15T03:32:31;101256.25;;;5.73;100.00
56392;BME280;42289;53.582;9.714;2022-11-15T03:35:02;101250.28;;;5.70;100.00
56392;BME280;42289;53.582;9.714;2022-11-15T03:37:35;101238.22;;;5.70;100.00
56392;BME280;42289;53.582;9.714;2022-11-15T03:40:04;101231.34;;;5.69;100.00
56392;BME280;42289;53.582;9.714;2022-11-15T03:42:38;101226.19;;;5.69;100.00
56392;BME280;42289;53.582;9.714;2022-11-15T03:45:13;101209.84;;;5.70;100.00
56392;BME280;42289;53.582;9.714;2022-11-15T03:47:46;101210.72;;;5.69;100.00
56392;BME280;42289;53.582;9.714;2022-11-15T03:50:17;101209.81;;;5.72;100.00
56392;BME280;42289;53.582;9.714;2022-11-15T03:52:45;101209.88;;;5.69;100.00
56392;BME280;42289;53.582;9.714;2022-11-15T03:55:13;101211.63;;;5.65;100.00
56392;BME280;42289;53.582;9.714;2022-11-15T03:57:41;101205.59;;;5.66;100.00
56392;BME280;42289;53.582;9.714;2022-11-15T04:00:09;101198.72;;;5.68;100.00
56392;BME280;42289;53.582;9.714;2022-11-15T04:02:36;101214.97;;;5.75;100.00
56392;BME280;42289;53.582;9.714;2022-11-15T04:05:04;101205.44;;;5.82;100.00
56392;BME280;42289;53.582;9.714;2022-11-15T04:07:30;101195.09;;;5.83;100.00
56392;BME280;42289;53.582;9.714;2022-11-15T04:09:56;101189.84;;;5.89;100.00
56392;BME280;42289;53.582;9.714;2022-11-15T04:12:31;101184.63;;;5.94;100.00
56392;BME280;42289;53.582;9.714;2022-11-15T04:14:58;101175.13;;;5.98;100.00
56392;BME280;42289;53.582;9.714;2022-11-15T04:17:39;101169.91;;;6.04;100.00
56392;BME280;42289;53.582;9.714;2022-11-15T04:20:09;101162.06;;;6.09;100.00
56392;BME280;42289;53.582;9.714;2022-11-15T04:22:55;101143.97;;;6.13;100.00
56392;BME280;42289;53.582;9.714;2022-11-15T04:25:40;101140.44;;;6.19;100.00
56392;BME280;42289;53.582;9.714;2022-11-15T04:28:07;101125.72;;;6.24;100.00
56392;BME280;42289;53.582;9.714;2022-11-15T04:30:34;101123.09;;;6.27;100.00
56392;BME280;42289;53.582;9.714;2022-11-15T04:33:00;101113.50;;;6.34;100.00
56392;BME280;42289;53.582;9.714;2022-11-15T04:35:28;101097.16;;;6.35;100.00
56392;BME280;42289;53.582;9.714;2022-11-15T04:37:55;101091.94;;;6.38;100.00
56392;BME280;42289;53.582;9.714;2022-11-15T04:40:20;101084.16;;;6.39;100.00
56392;BME280;42289;53.582;9.714;2022-11-15T04:42:47;101081.47;;;6.46;100.00
56392;BME280;42289;53.582;9.714;2022-11-15T04:45:13;101068.56;;;6.46;100.00
56392;BME280;42289;53.582;9.714;2022-11-15T04:47:43;101063.31;;;6.52;100.00
56392;BME280;42289;53.582;9.714;2022-11-15T04:50:09;101050.28;;;6.56;100.00
56392;BME280;42289;53.582;9.714;2022-11-15T04:52:39;101033.03;;;6.59;100.00
56392;BME280;42289;53.582;9.714;2022-11-15T04:55:06;101028.66;;;6.62;100.00
56392;BME280;42289;53.582;9.714;2022-11-15T04:57:33;101025.09;;;6.69;100.00
56392;BME280;42289;53.582;9.714;2022-11-15T04:59:59;101018.09;;;6.74;100.00
56392;BME280;42289;53.582;9.714;2022-11-15T05:02:26;101010.38;;;6.73;100.00
56392;BME280;42289;53.582;9.714;2022-11-15T05:05:12;101012.88;;;6.78;100.00
56392;BME280;42289;53.582;9.714;2022-11-15T05:07:39;101002.50;;;6.79;100.00
56392;BME280;42289;53.582;9.714;2022-11-15T05:10:06;101014.56;;;6.79;100.00
56392;BME280;42289;53.582;9.714;2022-11-15T05:12:32;101014.38;;;6.88;100.00
56392;BME280;42289;53.582;9.714;2022-11-15T05:14:59;101003.28;;;6.84;100.00
56392;BME280;42289;53.582;9.714;2022-11-15T05:17:25;101021.38;;;6.84;100.00
56392;BME280;42289;53.582;9.714;2022-11-15T05:19:51;101038.41;;;6.93;100.00
56392;BME280;42289;53.582;9.714;2022-11-15T05:22:18;101042.91;;;6.83;100.00
56392;BME280;42289;53.582;9.714;2022-11-15T05:24:46;101072.13;;;6.85;100.00
56392;BME280;42289;53.582;9.714;2022-11-15T05:27:12;101087.44;;;6.96;100.00
56392;BME280;42289;53.582;9.714;2022-11-15T05:29:39;101085.78;;;6.92;100.00
56392;BME280;42289;53.582;9.714;2022-11-15T05:32:06;101090.19;;;6.87;100.00
56392;BME280;42289;53.582;9.714;2022-11-15T05:34:34;101087.81;;;6.78;100.00
56392;BME280;42289;53.582;9.714;2022-11-15T05:37:01;101086.22;;;6.69;100.00
56392;BME280;42289;53.582;9.714;2022-11-15T05:39:27;101089.72;;;6.66;100.00
56392;BME280;42289;53.582;9.714;2022-11-15T05:41:58;101090.69;;;6.61;100.00
56392;BME280;42289;53.582;9.714;2022-11-15T05:44:26;101092.44;;;6.59;100.00
56392;BME280;42289;53.582;9.714;2022-11-15T05:46:54;101114.78;;;6.63;100.00
56392;BME280;42289;53.582;9.714;2022-11-15T05:49:23;101132.69;;;6.70;100.00
56392;BME280;42289;53.582;9.714;2022-11-15T05:51:51;101140.41;;;6.73;100.00
56392;BME280;42289;53.582;9.714;2022-11-15T05:54:19;101135.94;;;6.83;100.00
56392;BME280;42289;53.582;9.714;2022-11-15T05:56:48;101132.53;;;6.80;100.00
56392;BME280;42289;53.582;9.714;2022-11-15T05:59:16;101137.69;;;6.81;100.00
56392;BME280;42289;53.582;9.714;2022-11-15T06:01:44;101131.66;;;6.81;100.00
56392;BME280;42289;53.582;9.714;2022-11-15T06:04:10;101141.09;;;6.83;100.00
56392;BME280;42289;53.582;9.714;2022-11-15T06:06:37;101140.19;;;6.86;100.00
56392;BME280;42289;53.582;9.714;2022-11-15T06:09:03;101139.28;;;6.88;100.00
56392;BME280;42289;53.582;9.714;2022-11-15T06:11:30;101134.81;;;6.98;100.00
56392;BME280;42289;53.582;9.714;2022-11-15T06:13:56;101142.53;;;7.00;100.00
56392;BME280;42289;53.582;9.714;2022-11-15T06:16:24;101138.13;;;7.05;100.00
56392;BME280;42289;53.582;9.714;2022-11-15T06:18:50;101133.72;;;7.10;100.00
56392;BME280;42289;53.582;9.714;2022-11-15T06:21:17;101138.88;;;7.12;100.00
56392;BME280;42289;53.582;9.714;2022-11-15T06:23:43;101133.69;;;7.12;100.00
56392;BME280;42289;53.582;9.714;2022-11-15T06:26:09;101128.56;;;7.10;100.00
56392;BME280;42289;53.582;9.714;2022-11-15T06:28:36;101115.56;;;7.13;100.00
56392;BME280;42289;53.582;9.714;2022-11-15T06:31:03;101089.84;;;7.05;100.00
56392;BME280;42289;53.582;9.714;2022-11-15T06:33:31;101069.28;;;7.01;100.00
56392;BME280;42289;53.582;9.714;2022-11-15T06:36:00;101079.59;;;7.02;100.00
56392;BME280;42289;53.582;9.714;2022-11-15T06:38:26;101062.44;;;6.98;100.00
56392;BME280;42289;53.582;9.714;2022-11-15T06:40:53;101057.19;;;7.01;100.00
56392;BME280;42289;53.582;9.714;2022-11-15T06:43:19;101064.06;;;7.02;100.00
56392;BME280;42289;53.582;9.714;2022-11-15T06:45:46;101055.47;;;7.02;100.00
56392;BME280;42289;53.582;9.714;2022-11-15T06:48:12;101064.06;;;7.02;100.00
56392;BME280;42289;53.582;9.714;2022-11-15T06:50:40;101058.00;;;7.05;100.00
56392;BME280;42289;53.582;9.714;2022-11-15T06:53:06;101058.84;;;7.05;100.00
56392;BME280;42289;53.582;9.714;2022-11-15T06:55:33;101061.38;;;7.07;100.00
56392;BME280;42289;53.582;9.714;2022-11-15T06:57:59;101060.47;;;7.10;100.00
56392;BME280;42289;53.582;9.714;2022-11-15T07:00:25;101072.41;;;7.17;100.00
56392;BME280;42289;53.582;9.714;2022-11-15T07:02:52;101066.34;;;7.18;100.00
56392;BME280;42289;53.582;9.714;2022-11-15T07:05:18;101068.91;;;7.18;100.00
56392;BME280;42289;53.582;9.714;2022-11-15T07:07:52;101071.38;;;7.24;100.00
56392;BME280;42289;53.582;9.714;2022-11-15T07:10:18;101078.31;;;7.23;100.00
56392;BME280;42289;53.582;9.714;2022-11-15T07:12:46;101079.16;;;7.24;100.00
56392;BME280;42289;53.582;9.714;2022-11-15T07:15:13;101080.91;;;7.22;100.00
56392;BME280;42289;53.582;9.714;2022-11-15T07:17:39;101069.69;;;7.23;100.00
56392;BME280;42289;53.582;9.714;2022-11-15T07:20:06;101071.44;;;7.22;100.00
56392;BME280;42289;53.582;9.714;2022-11-15T07:22:33;101061.94;;;7.23;100.00
56392;BME280;42289;53.582;9.714;2022-11-15T07:25:01;101062.00;;;7.20;100.00
56392;BME280;42289;53.582;9.714;2022-11-15T07:27:27;101054.16;;;7.23;100.00
56392;BME280;42289;53.582;9.714;2022-11-15T07:29:54;101033.47;;;7.23;100.00
56392;BME280;42289;53.582;9.714;2022-11-15T07:32:20;101024.03;;;7.22;100.00
56392;BME280;42289;53.582;9.714;2022-11-15T07:34:46;101028.38;;;7.20;100.00
56392;BME280;42289;53.582;9.714;2022-11-15T07:37:13;101017.94;;;7.24;100.00
56392;BME280;42289;53.582;9.714;2022-11-15T07:39:39;101003.28;;;7.25;100.00
56392;BME280;42289;53.582;9.714;2022-11-15T07:42:07;101004.06;;;7.29;100.00
56392;BME280;42289;53.582;9.714;2022-11-15T07:44:51;100992.88;;;7.28;100.00
56392;BME280;42289;53.582;9.714;2022-11-15T07:47:17;100995.34;;;7.33;100.00
56392;BME280;42289;53.582;9.714;2022-11-15T07:49:44;100982.31;;;7.37;100.00
56392;BME280;42289;53.582;9.714;2022-11-15T07:52:11;100976.28;;;7.38;100.00
56392;BME280;42289;53.582;9.714;2022-11-15T07:54:37;100977.03;;;7.42;100.00
56392;BME280;42289;53.582;9.714;2022-11-15T07:57:05;100976.16;;;7.43;100.00
56392;BME280;42289;53.582;9.714;2022-11-15T07:59:33;100954.53;;;7.46;100.00
56392;BME280;42289;53.582;9.714;2022-11-15T08:02:00;100938.94;;;7.49;100.00
56392;BME280;42289;53.582;9.714;2022-11-15T08:04:27;100938.91;;;7.52;100.00
56392;BME280;42289;53.582;9.714;2022-11-15T08:06:53;100930.22;;;7.53;100.00
56392;BME280;42289;53.582;9.714;2022-11-15T08:09:20;100919.88;;;7.54;100.00
56392;BME280;42289;53.582;9.714;2022-11-15T08:11:46;100913.75;;;7.57;100.00
56392;BME280;42289;53.582;9.714;2022-11-15T08:14:12;100903.44;;;7.55;100.00
56392;BME280;42289;53.582;9.714;2022-11-15T08:16:40;100898.91;;;7.64;100.00
56392;BME280;42289;53.582;9.714;2022-11-15T08:19:06;100874.75;;;7.65;100.00
56392;BME280;42289;53.582;9.714;2022-11-15T08:21:33;100860.88;;;7.67;100.00
56392;BME280;42289;53.582;9.714;2022-11-15T08:24:00;100854.78;;;7.70;100.00
56392;BME280;42289;53.582;9.714;2022-11-15T08:26:27;100846.09;;;7.72;100.00
56392;BME280;42289;53.582;9.714;2022-11-15T08:28:55;100821.94;;;7.72;100.00
56392;BME280;42289;53.582;9.714;2022-11-15T08:31:21;100803.81;;;7.73;100.00
56392;BME280;42289;53.582;9.714;2022-11-15T08:33:49;100801.09;;;7.78;100.00
56392;BME280;42289;53.582;9.714;2022-11-15T08:36:16;100787.22;;;7.81;100.00
56392;BME280;42289;53.582;9.714;2022-11-15T08:38:43;100762.84;;;7.88;100.00
56392;BME280;42289;53.582;9.714;2022-11-15T08:41:12;100748.91;;;7.94;100.00
56392;BME280;42289;53.582;9.714;2022-11-15T08:43:39;100735.81;;;7.98;100.00
56392;BME280;42289;53.582;9.714;2022-11-15T08:46:10;100716.72;;;8.02;100.00
56392;BME280;42289;53.582;9.714;2022-11-15T08:48:38;100702.00;;;8.04;100.00
56392;BME280;42289;53.582;9.714;2022-11-15T08:51:06;100682.31;;;7.99;100.00
56392;BME280;42289;53.582;9.714;2022-11-15T08:53:33;100666.66;;;8.03;100.00
56392;BME280;42289;53.582;9.714;2022-11-15T08:56:00;100678.84;;;8.00;100.00
56392;BME280;42289;53.582;9.714;2022-11-15T08:58:26;100668.69;;;7.94;100.00
56392;BME280;42289;53.582;9.714;2022-11-15T09:00:53;100670.56;;;7.88;100.00
56392;BME280;42289;53.582;9.714;2022-11-15T09:03:19;100666.44;;;7.81;100.00
56392;BME280;42289;53.582;9.714;2022-11-15T09:05:46;100671.69;;;7.78;100.00
56392;BME280;42289;53.582;9.714;2022-11-15T09:08:14;100669.88;;;7.82;100.00
56392;BME280;42289;53.582;9.714;2022-11-15T09:10:40;100673.19;;;7.87;100.00
56392;BME280;42289;53.582;9.714;2022-11-15T09:13:07;100665.44;;;7.87;100.00
56392;BME280;42289;53.582;9.714;2022-11-15T09:15:33;100668.69;;;7.92;100.00
56392;BME280;42289;53.582;9.714;2022-11-15T09:17:59;100661.53;;;8.02;100.00
56392;BME280;42289;53.582;9.714;2022-11-15T09:20:26;100656.09;;;8.09;100.00
56392;BME280;42289;53.582;9.714;2022-11-15T09:22:53;100635.09;;;8.19;100.00
56392;BME280;42289;53.582;9.714;2022-11-15T09:25:21;100622.69;;;8.29;100.00
56392;BME280;42289;53.582;9.714;2022-11-15T09:27:47;100613.03;;;8.34;100.00
56392;BME280;42289;53.582;9.714;2022-11-15T09:30:14;100602.47;;;8.40;100.00
56392;BME280;42289;53.582;9.714;2022-11-15T09:32:40;100577.25;;;8.47;100.00
56392;BME280;42289;53.582;9.714;2022-11-15T09:35:07;100560.59;;;8.54;100.00
56392;BME280;42289;53.582;9.714;2022-11-15T09:37:34;100548.22;;;8.62;100.00
56392;BME280;42289;53.582;9.714;2022-11-15T09:40:00;100540.25;;;8.68;100.00
56392;BME280;42289;53.582;9.714;2022-11-15T09:42:52;100528.06;;;8.70;100.00
56392;BME280;42289;53.582;9.714;2022-11-15T09:45:24;100519.34;;;8.73;100.00
56392;BME280;42289;53.582;9.714;2022-11-15T09:48:19;100513.25;;;8.74;100.00
56392;BME280;42289;53.582;9.714;2022-11-15T09:50:51;100506.91;;;8.83;100.00
56392;BME280;42289;53.582;9.714;2022-11-15T09:53:26;100502.75;;;8.79;100.00
56392;BME280;42289;53.582;9.714;2022-11-15T09:55:58;100504.53;;;8.77;100.00
56392;BME280;42289;53.582;9.714;2022-11-15T09:58:33;100493.16;;;8.81;100.00
56392;BME280;42289;53.582;9.714;2022-11-15T10:01:06;100506.06;;;8.82;100.00
56392;BME280;42289;53.582;9.714;2022-11-15T10:03:35;100506.28;;;8.76;100.00
56392;BME280;42289;53.582;9.714;2022-11-15T10:06:04;100499.34;;;8.77;100.00
56392;BME280;42289;53.582;9.714;2022-11-15T10:08:48;100501.19;;;8.73;100.00
56392;BME280;42289;53.582;9.714;2022-11-15T10:11:19;100506.38;;;8.73;100.00
56392;BME280;42289;53.582;9.714;2022-11-15T10:13:48;100495.31;;;8.69;100.00
56392;BME280;42289;53.582;9.714;2022-11-15T10:16:27;100493.66;;;8.67;100.00
56392;BME280;42289;53.582;9.714;2022-11-15T10:19:03;100502.31;;;8.66;100.00
56392;BME280;42289;53.582;9.714;2022-11-15T10:21:32;100493.81;;;8.62;100.00
56392;BME280;42289;53.582;9.714;2022-11-15T10:24:19;100501.53;;;8.64;100.00
56392;BME280;42289;53.582;9.714;2022-11-15T10:26:46;100499.91;;;8.61;100.00
56392;BME280;42289;53.582;9.714;2022-11-15T10:29:18;100507.69;;;8.61;100.00
56392;BME280;42289;53.582;9.714;2022-11-15T10:31:46;100499.75;;;8.66;100.00
56392;BME280;42289;53.582;9.714;2022-11-15T10:34:13;100503.13;;;8.68;100.00
56392;BME280;42289;53.582;9.714;2022-11-15T10:36:44;100496.97;;;8.70;100.00
56392;BME280;42289;53.582;9.714;2022-11-15T10:39:11;100491.78;;;8.70;100.00
56392;BME280;42289;53.582;9.714;2022-11-15T10:41:39;100479.00;;;8.66;100.00
56392;BME280;42289;53.582;9.714;2022-11-15T10:44:23;100485.78;;;8.70;100.00
56392;BME280;42289;53.582;9.714;2022-11-15T10:47:06;100477.16;;;8.69;100.00
56392;BME280;42289;53.582;9.714;2022-11-15T10:49:34;100475.00;;;8.81;100.00
56392;BME280;42289;53.582;9.714;2022-11-15T10:52:12;100469.69;;;8.84;100.00
56392;BME280;42289;53.582;9.714;2022-11-15T10:54:42;100467.78;;;8.89;100.00
56392;BME280;42289;53.582;9.714;2022-11-15T10:57:14;100457.47;;;8.87;100.00
56392;BME280;42289;53.582;9.714;2022-11-15T10:59:46;100450.66;;;8.85;100.00
56392;BME280;42289;53.582;9.714;2022-11-15T11:02:33;100442.94;;;8.83;100.00
56392;BME280;42289;53.582;9.714;2022-11-15T11:05:01;100444.53;;;8.87;100.00
56392;BME280;42289;53.582;9.714;2022-11-15T11:07:29;100446.84;;;8.95;100.00
56392;BME280;42289;53.582;9.714;2022-11-15T11:09:58;100450.13;;;8.99;100.00
56392;BME280;42289;53.582;9.714;2022-11-15T11:12:30;100440.75;;;8.96;100.00
56392;BME280;42289;53.582;9.714;2022-11-15T11:14:59;100431.91;;;9.02;100.00
56392;BME280;42289;53.582;9.714;2022-11-15T11:17:36;100430.88;;;9.06;100.00
56392;BME280;42289;53.582;9.714;2022-11-15T11:20:11;100429.03;;;9.08;100.00
56392;BME280;42289;53.582;9.714;2022-11-15T11:22:52;100410.00;;;9.09;100.00
56392;BME280;42289;53.582;9.714;2022-11-15T11:25:28;100408.56;;;9.24;100.00
56392;BME280;42289;53.582;9.714;2022-11-15T11:28:10;100385.91;;;9.50;100.00
56392;BME280;42289;53.582;9.714;2022-11-15T11:30:49;100362.69;;;9.67;100.00
56392;BME280;42289;53.582;9.714;2022-11-15T11:33:21;100348.56;;;9.74;100.00
56392;BME280;42289;53.582;9.714;2022-11-15T11:36:01;100335.06;;;9.87;100.00
56392;BME280;42289;53.582;9.714;2022-11-15T11:38:40;100334.31;;;9.83;100.00
56392;BME280;42289;53.582;9.714;2022-11-15T11:41:16;100333.22;;;9.89;100.00
56392;BME280;42289;53.582;9.714;2022-11-15T11:43:51;100332.63;;;9.82;100.00
56392;BME280;42289;53.582;9.714;2022-11-15T11:46:36;100333.34;;;9.86;100.00
56392;BME280;42289;53.582;9.714;2022-11-15T11:49:09;100334.13;;;9.88;100.00
56392;BME280;42289;53.582;9.714;2022-11-15T11:51:38;100333.22;;;9.89;100.00
56392;BME280;42289;53.582;9.714;2022-11-15T11:54:12;100347.81;;;9.91;100.00
56392;BME280;42289;53.582;9.714;2022-11-15T11:56:41;100342.47;;;9.94;100.00
56392;BME280;42289;53.582;9.714;2022-11-15T11:59:15;100335.81;;;10.09;100.00
56392;BME280;42289;53.582;9.714;2022-11-15T12:01:44;100329.56;;;10.14;100.00
56392;BME280;42289;53.582;9.714;2022-11-15T12:04:14;100329.59;;;10.12;100.00
56392;BME280;42289;53.582;9.714;2022-11-15T12:06:47;100336.47;;;10.13;100.00
56392;BME280;42289;53.582;9.714;2022-11-15T12:09:19;100329.75;;;10.09;100.00
56392;BME280;42289;53.582;9.714;2022-11-15T12:11:52;100331.09;;;10.18;100.00
56392;BME280;42289;53.582;9.714;2022-11-15T12:14:27;100344.69;;;10.04;100.00
56392;BME280;42289;53.582;9.714;2022-11-15T12:16:57;100328.59;;;9.96;100.00
56392;BME280;42289;53.582;9.714;2022-11-15T12:19:25;100334.97;;;9.88;100.00
56392;BME280;42289;53.582;9.714;2022-11-15T12:21:59;100331.41;;;9.91;100.00
56392;BME280;42289;53.582;9.714;2022-11-15T12:24:32;100340.25;;;9.87;100.00
56392;BME280;42289;53.582;9.714;2022-11-15T12:27:03;100337.44;;;9.91;100.00
56392;BME280;42289;53.582;9.714;2022-11-15T12:29:35;100335.63;;;9.93;100.00
56392;BME280;42289;53.582;9.714;2022-11-15T12:32:26;100331.34;;;9.92;100.00
56392;BME280;42289;53.582;9.714;2022-11-15T12:34:55;100329.47;;;9.96;100.00
56392;BME280;42289;53.582;9.714;2022-11-15T12:37:54;100335.47;;;9.97;100.00
56392;BME280;42289;53.582;9.714;2022-11-15T12:40:37;100328.59;;;9.96;100.00
56392;BME280;42289;53.582;9.714;2022-11-15T12:43:34;100319.97;;;9.95;100.00
56392;BME280;42289;53.582;9.714;2022-11-15T12:46:11;100327.63;;;9.98;100.00
56392;BME280;42289;53.582;9.714;2022-11-15T12:48:58;100314.31;;;10.06;100.00
56392;BME280;42289;53.582;9.714;2022-11-15T12:52:09;100310.28;;;9.99;100.00
56392;BME280;42289;53.582;9.714;2022-11-15T12:55:00;100305.78;;;10.02;100.00
56392;BME280;42289;53.582;9.714;2022-11-15T12:57:41;100306.91;;;9.97;100.00
56392;BME280;42289;53.582;9.714;2022-11-15T13:00:42;100295.47;;;10.01;100.00
56392;BME280;42289;53.582;9.714;2022-11-15T13:03:27;100304.09;;;10.01;100.00
56392;BME280;42289;53.582;9.714;2022-11-15T13:06:10;100297.75;;;10.08;100.00
56392;BME280;42289;53.582;9.714;2022-11-15T13:08:56;100296.69;;;10.13;100.00
56392;BME280;42289;53.582;9.714;2022-11-15T13:11:44;100278.22;;;10.19;100.00